sensor_id;sensor_type;location;lat;lon;timestamp;P1;durP1;ratioP1;P2;durP2;ratioP2
39948;SDS011;29070;48.102;-1.652;2023-04-03T00:04:39;10.60;;;2.78;;
39948;SDS011;29070;48.102;-1.652;2023-04-03T00:09:39;7.45;;;2.58;;
39948;SDS011;29070;48.102;-1.652;2023-04-03T00:14:40;7.47;;;2.00;;
39948;SDS011;29070;48.102;-1.652;2023-04-03T00:19:40;12.33;;;2.30;;
39948;SDS011;29070;48.102;-1.652;2023-04-03T00:24:40;9.60;;;1.87;;
39948;SDS011;29070;48.102;-1.652;2023-04-03T00:29:41;8.77;;;2.17;;
39948;SDS011;29070;48.102;-1.652;2023-04-03T00:34:42;6.80;;;2.43;;
39948;SDS011;29070;48.102;-1.652;2023-04-03T00:39:42;8.87;;;2.30;;
39948;SDS011;29070;48.102;-1.652;2023-04-03T00:49:43;8.02;;;3.03;;
39948;SDS011;29070;48.102;-1.652;2023-04-03T00:54:45;10.57;;;3.05;;
39948;SDS011;29070;48.102;-1.652;2023-04-03T00:59:52;10.48;;;2.70;;
39948;SDS011;29070;48.102;-1.652;2023-04-03T01:04:57;8.10;;;3.10;;
39948;SDS011;29070;48.102;-1.652;2023-04-03T01:09:59;10.63;;;2.70;;
39948;SDS011;29070;48.102;-1.652;2023-04-03T01:15:12;8.60;;;2.25;;
39948;SDS011;29070;48.102;-1.652;2023-04-03T01:25:27;7.20;;;2.50;;
39948;SDS011;29070;48.102;-1.652;2023-04-03T01:30:30;8.00;;;2.58;;
39948;SDS011;29070;48.102;-1.652;2023-04-03T01:35:34;9.32;;;2.63;;
39948;SDS011;29070;48.102;-1.652;2023-04-03T01:40:35;8.20;;;2.90;;
39948;SDS011;29070;48.102;-1.652;2023-04-03T01:45:35;12.35;;;2.92;;
39948;SDS011;29070;48.102;-1.652;2023-04-03T01:50:36;12.17;;;2.83;;
39948;SDS011;29070;48.102;-1.652;2023-04-03T01:55:36;11.07;;;2.70;;
39948;SDS011;29070;48.102;-1.652;2023-04-03T02:00:36;13.43;;;3.07;;
39948;SDS011;29070;48.102;-1.652;2023-04-03T02:05:37;15.03;;;3.17;;
39948;SDS011;29070;48.102;-1.652;2023-04-03T02:10:38;10.00;;;2.45;;
39948;SDS011;29070;48.102;-1.652;2023-04-03T02:15:38;14.85;;;2.80;;
39948;SDS011;29070;48.102;-1.652;2023-04-03T02:20:39;14.07;;;2.72;;
39948;SDS011;29070;48.102;-1.652;2023-04-03T02:25:39;14.30;;;3.33;;
39948;SDS011;29070;48.102;-1.652;2023-04-03T02:30:40;12.82;;;2.60;;
39948;SDS011;29070;48.102;-1.652;2023-04-03T02:35:40;9.40;;;2.30;;
39948;SDS011;29070;48.102;-1.652;2023-04-03T02:40:41;8.73;;;2.43;;
39948;SDS011;29070;48.102;-1.652;2023-04-03T02:45:41;16.27;;;2.40;;
39948;SDS011;29070;48.102;-1.652;2023-04-03T02:50:41;11.83;;;3.00;;
39948;SDS011;29070;48.102;-1.652;2023-04-03T02:55:42;12.65;;;2.58;;
39948;SDS011;29070;48.102;-1.652;2023-04-03T03:00:42;12.13;;;2.70;;
39948;SDS011;29070;48.102;-1.652;2023-04-03T03:05:42;11.67;;;3.23;;
39948;SDS011;29070;48.102;-1.652;2023-04-03T03:10:44;9.57;;;2.57;;
39948;SDS011;29070;48.102;-1.652;2023-04-03T03:15:44;18.35;;;2.55;;
39948;SDS011;29070;48.102;-1.652;2023-04-03T03:20:45;8.27;;;2.70;;
39948;SDS011;29070;48.102;-1.652;2023-04-03T03:25:45;5.57;;;1.92;;
39948;SDS011;29070;48.102;-1.652;2023-04-03T03:30:45;12.10;;;2.37;;
39948;SDS011;29070;48.102;-1.652;2023-04-03T03:35:46;9.00;;;2.50;;
39948;SDS011;29070;48.102;-1.652;2023-04-03T03:40:47;6.95;;;2.00;;
39948;SDS011;29070;48.102;-1.652;2023-04-03T03:45:52;8.55;;;1.98;;
39948;SDS011;29070;48.102;-1.652;2023-04-03T03:50:52;15.70;;;2.28;;
39948;SDS011;29070;48.102;-1.652;2023-04-03T03:55:53;8.50;;;1.70;;
39948;SDS011;29070;48.102;-1.652;2023-04-03T04:00:53;13.57;;;2.33;;
39948;SDS011;29070;48.102;-1.652;2023-04-03T04:05:53;12.97;;;2.43;;
39948;SDS011;29070;48.102;-1.652;2023-04-03T04:10:54;10.68;;;2.35;;
39948;SDS011;29070;48.102;-1.652;2023-04-03T04:15:55;11.70;;;2.50;;
39948;SDS011;29070;48.102;-1.652;2023-04-03T04:20:55;6.40;;;2.03;;
39948;SDS011;29070;48.102;-1.652;2023-04-03T04:25:55;8.90;;;1.77;;
39948;SDS011;29070;48.102;-1.652;2023-04-03T04:30:56;7.27;;;2.03;;
39948;SDS011;29070;48.102;-1.652;2023-04-03T04:35:56;10.20;;;2.20;;
39948;SDS011;29070;48.102;-1.652;2023-04-03T04:40:56;8.98;;;2.25;;
39948;SDS011;29070;48.102;-1.652;2023-04-03T04:46:04;11.47;;;2.97;;
39948;SDS011;29070;48.102;-1.652;2023-04-03T04:51:06;10.63;;;2.05;;
39948;SDS011;29070;48.102;-1.652;2023-04-03T04:56:06;11.25;;;2.58;;
39948;SDS011;29070;48.102;-1.652;2023-04-03T05:01:08;10.80;;;2.57;;
39948;SDS011;29070;48.102;-1.652;2023-04-03T05:06:09;7.53;;;2.13;;
39948;SDS011;29070;48.102;-1.652;2023-04-03T05:11:10;12.77;;;2.25;;
39948;SDS011;29070;48.102;-1.652;2023-04-03T05:16:10;6.88;;;2.53;;
39948;SDS011;29070;48.102;-1.652;2023-04-03T05:21:11;7.50;;;2.92;;
39948;SDS011;29070;48.102;-1.652;2023-04-03T05:26:11;6.65;;;2.38;;
39948;SDS011;29070;48.102;-1.652;2023-04-03T05:31:12;5.28;;;2.00;;
39948;SDS011;29070;48.102;-1.652;2023-04-03T05:36:13;10.13;;;2.63;;
39948;SDS011;29070;48.102;-1.652;2023-04-03T05:41:13;9.32;;;2.63;;
39948;SDS011;29070;48.102;-1.652;2023-04-03T05:46:16;8.82;;;2.33;;
39948;SDS011;29070;48.102;-1.652;2023-04-03T05:51:18;12.70;;;3.20;;
39948;SDS011;29070;48.102;-1.652;2023-04-03T05:56:25;7.75;;;2.55;;
39948;SDS011;29070;48.102;-1.652;2023-04-03T06:01:26;7.78;;;3.10;;
39948;SDS011;29070;48.102;-1.652;2023-04-03T06:06:42;7.85;;;2.65;;
39948;SDS011;29070;48.102;-1.652;2023-04-03T06:11:47;3.95;;;2.42;;
39948;SDS011;29070;48.102;-1.652;2023-04-03T06:16:48;12.80;;;2.95;;
39948;SDS011;29070;48.102;-1.652;2023-04-03T06:21:48;12.53;;;3.27;;
39948;SDS011;29070;48.102;-1.652;2023-04-03T06:26:48;8.25;;;3.05;;
39948;SDS011;29070;48.102;-1.652;2023-04-03T06:31:51;9.82;;;3.10;;
39948;SDS011;29070;48.102;-1.652;2023-04-03T06:36:51;10.73;;;3.17;;
39948;SDS011;29070;48.102;-1.652;2023-04-03T06:41:52;8.40;;;3.17;;
39948;SDS011;29070;48.102;-1.652;2023-04-03T06:46:52;6.88;;;3.03;;
39948;SDS011;29070;48.102;-1.652;2023-04-03T06:51:54;11.85;;;3.35;;
39948;SDS011;29070;48.102;-1.652;2023-04-03T06:56:56;8.90;;;3.47;;
39948;SDS011;29070;48.102;-1.652;2023-04-03T07:01:56;11.57;;;3.40;;
39948;SDS011;29070;48.102;-1.652;2023-04-03T07:06:58;9.20;;;2.65;;
39948;SDS011;29070;48.102;-1.652;2023-04-03T07:12:00;8.68;;;3.60;;
39948;SDS011;29070;48.102;-1.652;2023-04-03T07:17:00;10.13;;;3.35;;
39948;SDS011;29070;48.102;-1.652;2023-04-03T07:22:00;9.90;;;3.50;;
39948;SDS011;29070;48.102;-1.652;2023-04-03T07:27:01;7.60;;;3.30;;
39948;SDS011;29070;48.102;-1.652;2023-04-03T07:32:02;7.13;;;3.35;;
39948;SDS011;29070;48.102;-1.652;2023-04-03T07:37:03;6.95;;;3.45;;
39948;SDS011;29070;48.102;-1.652;2023-04-03T07:42:04;9.25;;;3.58;;
39948;SDS011;29070;48.102;-1.652;2023-04-03T07:47:05;8.90;;;3.80;;
39948;SDS011;29070;48.102;-1.652;2023-04-03T07:52:06;9.73;;;3.50;;
39948;SDS011;29070;48.102;-1.652;2023-04-03T07:57:07;5.80;;;3.85;;
39948;SDS011;29070;48.102;-1.652;2023-04-03T08:02:11;10.57;;;3.90;;
39948;SDS011;29070;48.102;-1.652;2023-04-03T08:07:12;7.93;;;4.47;;
39948;SDS011;29070;48.102;-1.652;2023-04-03T08:12:12;11.13;;;3.80;;
39948;SDS011;29070;48.102;-1.652;2023-04-03T08:17:14;7.93;;;3.97;;
39948;SDS011;29070;48.102;-1.652;2023-04-03T08:22:15;8.82;;;4.05;;
39948;SDS011;29070;48.102;-1.652;2023-04-03T08:27:16;10.32;;;4.30;;
39948;SDS011;29070;48.102;-1.652;2023-04-03T08:32:16;6.85;;;4.00;;
39948;SDS011;29070;48.102;-1.652;2023-04-03T08:37:16;10.67;;;4.57;;
39948;SDS011;29070;48.102;-1.652;2023-04-03T08:53:20;7.85;;;4.22;;
39948;SDS011;29070;48.102;-1.652;2023-04-03T08:58:27;8.07;;;4.53;;
39948;SDS011;29070;48.102;-1.652;2023-04-03T09:03:37;10.40;;;4.57;;
39948;SDS011;29070;48.102;-1.652;2023-04-03T09:09:13;10.20;;;4.57;;
39948;SDS011;29070;48.102;-1.652;2023-04-03T09:14:13;18.00;;;7.95;;
39948;SDS011;29070;48.102;-1.652;2023-04-03T09:24:21;12.30;;;6.63;;
39948;SDS011;29070;48.102;-1.652;2023-04-03T09:29:23;14.73;;;6.75;;
39948;SDS011;29070;48.102;-1.652;2023-04-03T09:34:59;13.13;;;6.25;;
39948;SDS011;29070;48.102;-1.652;2023-04-03T09:39:53;8.27;;;4.68;;
39948;SDS011;29070;48.102;-1.652;2023-04-03T09:44:55;9.32;;;5.07;;
39948;SDS011;29070;48.102;-1.652;2023-04-03T09:55:21;11.93;;;5.35;;
39948;SDS011;29070;48.102;-1.652;2023-04-03T10:05:37;9.45;;;4.68;;
39948;SDS011;29070;48.102;-1.652;2023-04-03T10:10:44;9.77;;;5.15;;
39948;SDS011;29070;48.102;-1.652;2023-04-03T10:15:56;11.23;;;5.60;;
39948;SDS011;29070;48.102;-1.652;2023-04-03T10:21:07;13.02;;;5.93;;
39948;SDS011;29070;48.102;-1.652;2023-04-03T10:26:36;11.40;;;5.38;;
39948;SDS011;29070;48.102;-1.652;2023-04-03T10:31:52;11.70;;;5.70;;
39948;SDS011;29070;48.102;-1.652;2023-04-03T10:47:41;9.68;;;4.85;;
39948;SDS011;29070;48.102;-1.652;2023-04-03T10:58:32;10.25;;;5.07;;
39948;SDS011;29070;48.102;-1.652;2023-04-03T11:03:40;12.35;;;5.60;;
39948;SDS011;29070;48.102;-1.652;2023-04-03T11:14:23;10.35;;;5.45;;
39948;SDS011;29070;48.102;-1.652;2023-04-03T11:24:42;10.35;;;5.13;;
39948;SDS011;29070;48.102;-1.652;2023-04-03T11:29:46;10.23;;;5.33;;
39948;SDS011;29070;48.102;-1.652;2023-04-03T11:34:50;10.88;;;5.78;;
39948;SDS011;29070;48.102;-1.652;2023-04-03T11:40:00;9.63;;;5.55;;
39948;SDS011;29070;48.102;-1.652;2023-04-03T11:55:51;11.80;;;5.72;;
39948;SDS011;29070;48.102;-1.652;2023-04-03T12:00:58;10.02;;;5.47;;
39948;SDS011;29070;48.102;-1.652;2023-04-03T12:26:40;10.02;;;5.22;;
39948;SDS011;29070;48.102;-1.652;2023-04-03T12:32:32;12.10;;;5.38;;
39948;SDS011;29070;48.102;-1.652;2023-04-03T12:37:21;8.55;;;4.60;;
39948;SDS011;29070;48.102;-1.652;2023-04-03T12:48:17;9.65;;;4.97;;
39948;SDS011;29070;48.102;-1.652;2023-04-03T12:53:23;8.50;;;4.57;;
39948;SDS011;29070;48.102;-1.652;2023-04-03T12:58:27;7.20;;;4.30;;
39948;SDS011;29070;48.102;-1.652;2023-04-03T13:03:28;7.63;;;4.65;;
39948;SDS011;29070;48.102;-1.652;2023-04-03T13:08:30;8.88;;;4.38;;
39948;SDS011;29070;48.102;-1.652;2023-04-03T13:13:31;7.38;;;4.10;;
39948;SDS011;29070;48.102;-1.652;2023-04-03T13:18:32;7.18;;;4.50;;
39948;SDS011;29070;48.102;-1.652;2023-04-03T13:23:35;6.75;;;3.80;;
39948;SDS011;29070;48.102;-1.652;2023-04-03T13:28:38;7.78;;;4.25;;
39948;SDS011;29070;48.102;-1.652;2023-04-03T13:33:52;8.27;;;4.10;;
39948;SDS011;29070;48.102;-1.652;2023-04-03T13:39:18;7.32;;;4.50;;
39948;SDS011;29070;48.102;-1.652;2023-04-03T13:54:36;6.65;;;4.55;;
39948;SDS011;29070;48.102;-1.652;2023-04-03T13:59:39;8.38;;;3.95;;
39948;SDS011;29070;48.102;-1.652;2023-04-03T14:09:40;5.13;;;3.50;;
39948;SDS011;29070;48.102;-1.652;2023-04-03T14:14:40;7.20;;;4.00;;
39948;SDS011;29070;48.102;-1.652;2023-04-03T14:19:42;7.18;;;4.07;;
39948;SDS011;29070;48.102;-1.652;2023-04-03T14:24:42;6.65;;;3.95;;
39948;SDS011;29070;48.102;-1.652;2023-04-03T14:29:44;8.40;;;3.95;;
39948;SDS011;29070;48.102;-1.652;2023-04-03T14:34:46;5.65;;;3.90;;
39948;SDS011;29070;48.102;-1.652;2023-04-03T14:39:47;6.55;;;3.80;;
39948;SDS011;29070;48.102;-1.652;2023-04-03T14:44:48;6.85;;;3.70;;
39948;SDS011;29070;48.102;-1.652;2023-04-03T14:49:49;5.88;;;3.50;;
39948;SDS011;29070;48.102;-1.652;2023-04-03T14:54:50;4.67;;;3.30;;
39948;SDS011;29070;48.102;-1.652;2023-04-03T14:59:51;4.47;;;3.40;;
39948;SDS011;29070;48.102;-1.652;2023-04-03T15:04:52;5.40;;;3.53;;
39948;SDS011;29070;48.102;-1.652;2023-04-03T15:09:53;5.85;;;3.67;;
39948;SDS011;29070;48.102;-1.652;2023-04-03T15:14:56;8.73;;;3.50;;
39948;SDS011;29070;48.102;-1.652;2023-04-03T15:19:59;6.77;;;3.10;;
39948;SDS011;29070;48.102;-1.652;2023-04-03T15:24:59;4.38;;;3.25;;
39948;SDS011;29070;48.102;-1.652;2023-04-03T15:30:00;8.43;;;4.00;;
39948;SDS011;29070;48.102;-1.652;2023-04-03T15:35:00;5.90;;;3.37;;
39948;SDS011;29070;48.102;-1.652;2023-04-03T15:40:02;5.03;;;3.08;;
39948;SDS011;29070;48.102;-1.652;2023-04-03T15:45:03;3.58;;;2.83;;
39948;SDS011;29070;48.102;-1.652;2023-04-03T15:50:05;3.40;;;2.72;;
39948;SDS011;29070;48.102;-1.652;2023-04-03T15:55:07;4.72;;;3.15;;
39948;SDS011;29070;48.102;-1.652;2023-04-03T16:00:08;4.75;;;2.85;;
39948;SDS011;29070;48.102;-1.652;2023-04-03T16:05:09;4.65;;;2.75;;
39948;SDS011;29070;48.102;-1.652;2023-04-03T16:10:11;5.13;;;2.90;;
39948;SDS011;29070;48.102;-1.652;2023-04-03T16:15:13;4.07;;;2.97;;
39948;SDS011;29070;48.102;-1.652;2023-04-03T16:20:14;4.90;;;2.75;;
39948;SDS011;29070;48.102;-1.652;2023-04-03T16:25:14;4.95;;;3.13;;
39948;SDS011;29070;48.102;-1.652;2023-04-03T16:30:15;4.78;;;2.75;;
39948;SDS011;29070;48.102;-1.652;2023-04-03T16:35:15;4.32;;;2.80;;
39948;SDS011;29070;48.102;-1.652;2023-04-03T16:40:16;4.73;;;3.07;;
39948;SDS011;29070;48.102;-1.652;2023-04-03T16:45:16;5.50;;;3.10;;
39948;SDS011;29070;48.102;-1.652;2023-04-03T16:50:16;4.87;;;3.40;;
39948;SDS011;29070;48.102;-1.652;2023-04-03T16:55:17;5.47;;;3.13;;
39948;SDS011;29070;48.102;-1.652;2023-04-03T17:00:18;5.82;;;3.15;;
39948;SDS011;29070;48.102;-1.652;2023-04-03T17:05:18;6.00;;;3.50;;
39948;SDS011;29070;48.102;-1.652;2023-04-03T17:10:18;5.93;;;3.57;;
39948;SDS011;29070;48.102;-1.652;2023-04-03T17:15:19;5.10;;;3.08;;
39948;SDS011;29070;48.102;-1.652;2023-04-03T17:20:23;4.82;;;3.17;;
39948;SDS011;29070;48.102;-1.652;2023-04-03T17:25:24;4.80;;;3.20;;
39948;SDS011;29070;48.102;-1.652;2023-04-03T17:30:24;7.13;;;3.30;;
39948;SDS011;29070;48.102;-1.652;2023-04-03T17:35:25;5.55;;;3.63;;
39948;SDS011;29070;48.102;-1.652;2023-04-03T17:40:25;4.00;;;2.90;;
39948;SDS011;29070;48.102;-1.652;2023-04-03T17:45:26;5.72;;;2.92;;
39948;SDS011;29070;48.102;-1.652;2023-04-03T17:50:28;7.90;;;3.67;;
39948;SDS011;29070;48.102;-1.652;2023-04-03T17:55:28;7.85;;;3.70;;
39948;SDS011;29070;48.102;-1.652;2023-04-03T18:00:29;5.90;;;3.85;;
39948;SDS011;29070;48.102;-1.652;2023-04-03T18:05:30;4.45;;;2.88;;
39948;SDS011;29070;48.102;-1.652;2023-04-03T18:10:30;6.68;;;4.00;;
39948;SDS011;29070;48.102;-1.652;2023-04-03T18:15:31;6.33;;;3.70;;
39948;SDS011;29070;48.102;-1.652;2023-04-03T18:20:31;5.40;;;4.07;;
39948;SDS011;29070;48.102;-1.652;2023-04-03T18:25:31;6.67;;;3.90;;
39948;SDS011;29070;48.102;-1.652;2023-04-03T18:30:32;7.88;;;4.45;;
39948;SDS011;29070;48.102;-1.652;2023-04-03T18:35:34;6.20;;;4.10;;
39948;SDS011;29070;48.102;-1.652;2023-04-03T18:40:34;9.60;;;4.80;;
39948;SDS011;29070;48.102;-1.652;2023-04-03T18:45:35;8.55;;;4.97;;
39948;SDS011;29070;48.102;-1.652;2023-04-03T18:50:35;7.10;;;4.33;;
39948;SDS011;29070;48.102;-1.652;2023-04-03T18:55:36;11.27;;;5.70;;
39948;SDS011;29070;48.102;-1.652;2023-04-03T19:00:37;8.90;;;4.70;;
39948;SDS011;29070;48.102;-1.652;2023-04-03T19:05:38;8.52;;;4.97;;
39948;SDS011;29070;48.102;-1.652;2023-04-03T19:10:39;10.18;;;5.60;;
39948;SDS011;29070;48.102;-1.652;2023-04-03T19:15:39;8.63;;;5.53;;
39948;SDS011;29070;48.102;-1.652;2023-04-03T19:20:40;10.38;;;5.70;;
39948;SDS011;29070;48.102;-1.652;2023-04-03T19:25:40;9.57;;;6.03;;
39948;SDS011;29070;48.102;-1.652;2023-04-03T19:30:41;10.68;;;6.45;;
39948;SDS011;29070;48.102;-1.652;2023-04-03T19:35:41;9.85;;;6.03;;
39948;SDS011;29070;48.102;-1.652;2023-04-03T19:40:42;12.43;;;6.33;;
39948;SDS011;29070;48.102;-1.652;2023-04-03T19:45:43;13.88;;;6.25;;
39948;SDS011;29070;48.102;-1.652;2023-04-03T19:50:45;11.02;;;7.40;;
39948;SDS011;29070;48.102;-1.652;2023-04-03T19:55:46;11.77;;;7.28;;
39948;SDS011;29070;48.102;-1.652;2023-04-03T20:00:47;13.13;;;6.78;;
39948;SDS011;29070;48.102;-1.652;2023-04-03T20:05:47;11.23;;;6.82;;
39948;SDS011;29070;48.102;-1.652;2023-04-03T20:10:48;12.82;;;7.45;;
39948;SDS011;29070;48.102;-1.652;2023-04-03T20:15:48;12.83;;;7.43;;
39948;SDS011;29070;48.102;-1.652;2023-04-03T20:20:53;12.95;;;7.22;;
39948;SDS011;29070;48.102;-1.652;2023-04-03T20:25:55;14.00;;;7.47;;
39948;SDS011;29070;48.102;-1.652;2023-04-03T20:30:59;15.98;;;7.85;;
39948;SDS011;29070;48.102;-1.652;2023-04-03T20:36:01;13.73;;;7.40;;
39948;SDS011;29070;48.102;-1.652;2023-04-03T20:41:03;15.20;;;8.45;;
39948;SDS011;29070;48.102;-1.652;2023-04-03T20:46:04;15.40;;;7.72;;
39948;SDS011;29070;48.102;-1.652;2023-04-03T20:51:11;13.35;;;7.53;;
39948;SDS011;29070;48.102;-1.652;2023-04-03T20:56:13;14.80;;;8.05;;
39948;SDS011;29070;48.102;-1.652;2023-04-03T21:01:19;14.32;;;7.53;;
39948;SDS011;29070;48.102;-1.652;2023-04-03T21:22:58;18.67;;;8.32;;
39948;SDS011;29070;48.102;-1.652;2023-04-03T21:27:58;19.13;;;8.32;;
39948;SDS011;29070;48.102;-1.652;2023-04-03T21:32:58;14.07;;;8.07;;
39948;SDS011;29070;48.102;-1.652;2023-04-03T21:37:58;15.77;;;8.13;;
39948;SDS011;29070;48.102;-1.652;2023-04-03T21:42:59;15.70;;;8.60;;
39948;SDS011;29070;48.102;-1.652;2023-04-03T21:47:59;16.55;;;7.82;;
39948;SDS011;29070;48.102;-1.652;2023-04-03T21:53:02;13.52;;;7.22;;
39948;SDS011;29070;48.102;-1.652;2023-04-03T21:58:03;13.60;;;7.60;;
39948;SDS011;29070;48.102;-1.652;2023-04-03T22:03:03;15.10;;;8.57;;
39948;SDS011;29070;48.102;-1.652;2023-04-03T22:08:03;15.67;;;8.13;;
39948;SDS011;29070;48.102;-1.652;2023-04-03T22:13:06;17.80;;;8.07;;
39948;SDS011;29070;48.102;-1.652;2023-04-03T22:18:06;13.05;;;7.28;;
39948;SDS011;29070;48.102;-1.652;2023-04-03T22:23:06;14.70;;;7.85;;
39948;SDS011;29070;48.102;-1.652;2023-04-03T22:28:07;16.07;;;8.37;;
39948;SDS011;29070;48.102;-1.652;2023-04-03T22:33:07;13.83;;;8.00;;
39948;SDS011;29070;48.102;-1.652;2023-04-03T22:38:07;15.40;;;7.13;;
39948;SDS011;29070;48.102;-1.652;2023-04-03T22:43:08;17.73;;;7.40;;
39948;SDS011;29070;48.102;-1.652;2023-04-03T22:48:08;13.10;;;7.30;;
39948;SDS011;29070;48.102;-1.652;2023-04-03T22:53:09;14.90;;;7.77;;
39948;SDS011;29070;48.102;-1.652;2023-04-03T22:58:10;16.15;;;7.78;;
39948;SDS011;29070;48.102;-1.652;2023-04-03T23:03:10;15.75;;;8.00;;
39948;SDS011;29070;48.102;-1.652;2023-04-03T23:08:13;12.85;;;7.13;;
39948;SDS011;29070;48.102;-1.652;2023-04-03T23:13:13;15.63;;;7.50;;
39948;SDS011;29070;48.102;-1.652;2023-04-03T23:18:13;15.40;;;7.13;;
39948;SDS011;29070;48.102;-1.652;2023-04-03T23:23:15;10.40;;;6.00;;
39948;SDS011;29070;48.102;-1.652;2023-04-03T23:28:15;12.43;;;5.73;;
39948;SDS011;29070;48.102;-1.652;2023-04-03T23:33:16;12.93;;;6.35;;
39948;SDS011;29070;48.102;-1.652;2023-04-03T23:38:16;16.60;;;7.33;;
39948;SDS011;29070;48.102;-1.652;2023-04-03T23:43:17;10.15;;;5.55;;
39948;SDS011;29070;48.102;-1.652;2023-04-03T23:48:17;11.00;;;6.10;;
39948;SDS011;29070;48.102;-1.652;2023-04-03T23:53:18;10.10;;;5.57;;
39948;SDS011;29070;48.102;-1.652;2023-04-03T23:58:18;10.10;;;5.80;;
